sensor_id;sensor_type;location;lat;lon;timestamp;P1;durP1;ratioP1;P2;durP2;ratioP2
20697;SDS011;10508;50.956;4.640;2023-04-01T00:00:06;4.13;;;0.82;;
20697;SDS011;10508;50.956;4.640;2023-04-01T00:02:33;7.15;;;1.52;;
20697;SDS011;10508;50.956;4.640;2023-04-01T00:04:58;6.72;;;1.25;;
20697;SDS011;10508;50.956;4.640;2023-04-01T00:07:24;7.30;;;1.27;;
20697;SDS011;10508;50.956;4.640;2023-04-01T00:09:50;2.40;;;0.82;;
20697;SDS011;10508;50.956;4.640;2023-04-01T00:12:16;5.35;;;1.25;;
20697;SDS011;10508;50.956;4.640;2023-04-01T00:14:42;2.28;;;0.65;;
20697;SDS011;10508;50.956;4.640;2023-04-01T00:17:07;5.20;;;1.25;;
20697;SDS011;10508;50.956;4.640;2023-04-01T00:19:35;3.67;;;0.88;;
20697;SDS011;10508;50.956;4.640;2023-04-01T00:22:00;3.45;;;1.33;;
20697;SDS011;10508;50.956;4.640;2023-04-01T00:24:26;6.50;;;1.40;;
20697;SDS011;10508;50.956;4.640;2023-04-01T00:26:52;3.95;;;1.13;;
20697;SDS011;10508;50.956;4.640;2023-04-01T00:29:17;5.95;;;1.65;;
20697;SDS011;10508;50.956;4.640;2023-04-01T00:31:43;5.93;;;1.42;;
20697;SDS011;10508;50.956;4.640;2023-04-01T00:34:10;1.50;;;1.10;;
20697;SDS011;10508;50.956;4.640;2023-04-01T00:36:37;3.72;;;1.00;;
20697;SDS011;10508;50.956;4.640;2023-04-01T00:39:03;2.85;;;1.10;;
20697;SDS011;10508;50.956;4.640;2023-04-01T00:41:29;5.82;;;1.27;;
20697;SDS011;10508;50.956;4.640;2023-04-01T00:44:11;5.40;;;1.42;;
20697;SDS011;10508;50.956;4.640;2023-04-01T00:46:41;1.67;;;0.73;;
20697;SDS011;10508;50.956;4.640;2023-04-01T00:49:07;3.28;;;0.93;;
20697;SDS011;10508;50.956;4.640;2023-04-01T00:51:33;1.90;;;0.90;;
20697;SDS011;10508;50.956;4.640;2023-04-01T00:54:01;5.43;;;1.35;;
20697;SDS011;10508;50.956;4.640;2023-04-01T00:56:32;4.32;;;0.98;;
20697;SDS011;10508;50.956;4.640;2023-04-01T00:59:01;5.80;;;1.20;;
20697;SDS011;10508;50.956;4.640;2023-04-01T01:01:30;5.00;;;1.35;;
20697;SDS011;10508;50.956;4.640;2023-04-01T01:03:57;2.20;;;0.82;;
20697;SDS011;10508;50.956;4.640;2023-04-01T01:14:44;10.30;;;1.10;;
20697;SDS011;10508;50.956;4.640;2023-04-01T01:17:22;4.20;;;0.95;;
20697;SDS011;10508;50.956;4.640;2023-04-01T01:22:32;2.13;;;0.70;;
20697;SDS011;10508;50.956;4.640;2023-04-01T01:37:03;2.78;;;1.02;;
20697;SDS011;10508;50.956;4.640;2023-04-01T01:39:34;4.20;;;1.00;;
20697;SDS011;10508;50.956;4.640;2023-04-01T01:42:03;5.05;;;1.27;;
20697;SDS011;10508;50.956;4.640;2023-04-01T01:44:31;2.25;;;0.95;;
20697;SDS011;10508;50.956;4.640;2023-04-01T01:46:58;2.03;;;0.95;;
20697;SDS011;10508;50.956;4.640;2023-04-01T01:49:25;2.33;;;0.75;;
20697;SDS011;10508;50.956;4.640;2023-04-01T01:51:52;6.32;;;1.13;;
20697;SDS011;10508;50.956;4.640;2023-04-01T01:54:18;2.90;;;0.70;;
20697;SDS011;10508;50.956;4.640;2023-04-01T01:56:45;2.55;;;1.00;;
20697;SDS011;10508;50.956;4.640;2023-04-01T01:59:14;3.22;;;0.68;;
20697;SDS011;10508;50.956;4.640;2023-04-01T02:01:43;2.75;;;0.90;;
20697;SDS011;10508;50.956;4.640;2023-04-01T02:04:13;5.13;;;1.25;;
20697;SDS011;10508;50.956;4.640;2023-04-01T02:06:42;7.80;;;1.05;;
20697;SDS011;10508;50.956;4.640;2023-04-01T02:09:17;3.53;;;1.38;;
20697;SDS011;10508;50.956;4.640;2023-04-01T02:11:51;5.28;;;1.70;;
20697;SDS011;10508;50.956;4.640;2023-04-01T02:14:21;2.92;;;1.15;;
20697;SDS011;10508;50.956;4.640;2023-04-01T02:16:54;5.43;;;1.23;;
20697;SDS011;10508;50.956;4.640;2023-04-01T02:19:26;6.55;;;1.20;;
20697;SDS011;10508;50.956;4.640;2023-04-01T02:21:58;2.85;;;1.42;;
20697;SDS011;10508;50.956;4.640;2023-04-01T02:24:26;3.33;;;1.42;;
20697;SDS011;10508;50.956;4.640;2023-04-01T02:26:55;1.58;;;1.17;;
20697;SDS011;10508;50.956;4.640;2023-04-01T02:29:21;6.40;;;1.73;;
20697;SDS011;10508;50.956;4.640;2023-04-01T02:31:50;7.90;;;2.00;;
20697;SDS011;10508;50.956;4.640;2023-04-01T02:34:17;4.47;;;1.40;;
20697;SDS011;10508;50.956;4.640;2023-04-01T02:36:43;5.05;;;1.85;;
20697;SDS011;10508;50.956;4.640;2023-04-01T02:39:09;4.90;;;1.90;;
20697;SDS011;10508;50.956;4.640;2023-04-01T02:41:53;6.95;;;1.50;;
20697;SDS011;10508;50.956;4.640;2023-04-01T02:44:20;4.50;;;1.52;;
20697;SDS011;10508;50.956;4.640;2023-04-01T02:46:46;5.70;;;1.60;;
20697;SDS011;10508;50.956;4.640;2023-04-01T02:49:11;3.67;;;1.45;;
20697;SDS011;10508;50.956;4.640;2023-04-01T02:51:37;2.92;;;1.35;;
20697;SDS011;10508;50.956;4.640;2023-04-01T02:54:03;4.47;;;1.42;;
20697;SDS011;10508;50.956;4.640;2023-04-01T02:56:29;4.45;;;1.67;;
20697;SDS011;10508;50.956;4.640;2023-04-01T02:58:54;5.10;;;1.50;;
20697;SDS011;10508;50.956;4.640;2023-04-01T03:01:20;3.83;;;1.42;;
20697;SDS011;10508;50.956;4.640;2023-04-01T03:03:46;4.47;;;1.60;;
20697;SDS011;10508;50.956;4.640;2023-04-01T03:06:13;8.60;;;1.50;;
20697;SDS011;10508;50.956;4.640;2023-04-01T03:08:40;5.90;;;1.58;;
20697;SDS011;10508;50.956;4.640;2023-04-01T03:11:06;4.60;;;1.05;;
20697;SDS011;10508;50.956;4.640;2023-04-01T03:13:33;1.55;;;1.10;;
20697;SDS011;10508;50.956;4.640;2023-04-01T03:16:00;4.65;;;1.33;;
20697;SDS011;10508;50.956;4.640;2023-04-01T03:18:26;1.75;;;1.05;;
20697;SDS011;10508;50.956;4.640;2023-04-01T03:20:51;3.40;;;1.20;;
20697;SDS011;10508;50.956;4.640;2023-04-01T03:23:17;4.15;;;1.25;;
20697;SDS011;10508;50.956;4.640;2023-04-01T03:25:46;4.43;;;1.42;;
20697;SDS011;10508;50.956;4.640;2023-04-01T03:28:13;3.28;;;1.20;;
20697;SDS011;10508;50.956;4.640;2023-04-01T03:30:39;2.35;;;1.08;;
20697;SDS011;10508;50.956;4.640;2023-04-01T03:33:05;6.75;;;1.75;;
20697;SDS011;10508;50.956;4.640;2023-04-01T03:35:31;10.80;;;1.60;;
20697;SDS011;10508;50.956;4.640;2023-04-01T03:37:57;3.22;;;1.42;;
20697;SDS011;10508;50.956;4.640;2023-04-01T03:40:23;7.00;;;2.28;;
20697;SDS011;10508;50.956;4.640;2023-04-01T03:42:51;4.18;;;1.50;;
20697;SDS011;10508;50.956;4.640;2023-04-01T03:45:17;5.47;;;1.90;;
20697;SDS011;10508;50.956;4.640;2023-04-01T03:47:43;4.30;;;2.00;;
20697;SDS011;10508;50.956;4.640;2023-04-01T03:50:09;9.50;;;1.83;;
20697;SDS011;10508;50.956;4.640;2023-04-01T03:52:35;5.93;;;1.77;;
20697;SDS011;10508;50.956;4.640;2023-04-01T03:55:01;5.60;;;1.98;;
20697;SDS011;10508;50.956;4.640;2023-04-01T03:57:27;4.05;;;2.08;;
20697;SDS011;10508;50.956;4.640;2023-04-01T03:59:53;8.02;;;2.80;;
20697;SDS011;10508;50.956;4.640;2023-04-01T04:02:19;7.78;;;2.40;;
20697;SDS011;10508;50.956;4.640;2023-04-01T04:04:45;5.38;;;2.35;;
20697;SDS011;10508;50.956;4.640;2023-04-01T04:07:11;6.75;;;2.28;;
20697;SDS011;10508;50.956;4.640;2023-04-01T04:09:37;4.10;;;2.20;;
20697;SDS011;10508;50.956;4.640;2023-04-01T04:12:03;6.10;;;2.30;;
20697;SDS011;10508;50.956;4.640;2023-04-01T04:14:30;7.35;;;2.67;;
20697;SDS011;10508;50.956;4.640;2023-04-01T04:16:56;6.00;;;2.53;;
20697;SDS011;10508;50.956;4.640;2023-04-01T04:19:22;5.00;;;2.72;;
20697;SDS011;10508;50.956;4.640;2023-04-01T04:21:47;7.15;;;2.83;;
20697;SDS011;10508;50.956;4.640;2023-04-01T04:24:13;8.77;;;2.88;;
20697;SDS011;10508;50.956;4.640;2023-04-01T04:26:39;9.48;;;3.97;;
20697;SDS011;10508;50.956;4.640;2023-04-01T04:29:05;8.00;;;3.17;;
20697;SDS011;10508;50.956;4.640;2023-04-01T04:31:30;9.88;;;3.08;;
20697;SDS011;10508;50.956;4.640;2023-04-01T04:33:56;6.50;;;2.80;;
20697;SDS011;10508;50.956;4.640;2023-04-01T04:36:24;12.25;;;3.22;;
20697;SDS011;10508;50.956;4.640;2023-04-01T04:38:50;7.85;;;2.95;;
20697;SDS011;10508;50.956;4.640;2023-04-01T04:41:16;11.13;;;3.50;;
20697;SDS011;10508;50.956;4.640;2023-04-01T04:43:47;10.25;;;3.15;;
20697;SDS011;10508;50.956;4.640;2023-04-01T04:46:15;5.95;;;2.53;;
20697;SDS011;10508;50.956;4.640;2023-04-01T04:48:40;9.27;;;2.50;;
20697;SDS011;10508;50.956;4.640;2023-04-01T04:51:06;6.65;;;2.65;;
20697;SDS011;10508;50.956;4.640;2023-04-01T04:53:32;9.15;;;3.08;;
20697;SDS011;10508;50.956;4.640;2023-04-01T04:55:57;9.80;;;2.72;;
20697;SDS011;10508;50.956;4.640;2023-04-01T04:58:23;7.28;;;2.47;;
20697;SDS011;10508;50.956;4.640;2023-04-01T05:00:49;4.57;;;2.05;;
20697;SDS011;10508;50.956;4.640;2023-04-01T05:03:15;6.00;;;2.10;;
20697;SDS011;10508;50.956;4.640;2023-04-01T05:05:47;3.65;;;1.90;;
20697;SDS011;10508;50.956;4.640;2023-04-01T05:08:14;4.63;;;1.58;;
20697;SDS011;10508;50.956;4.640;2023-04-01T05:10:40;5.07;;;1.73;;
20697;SDS011;10508;50.956;4.640;2023-04-01T05:13:05;2.58;;;1.42;;
20697;SDS011;10508;50.956;4.640;2023-04-01T05:15:32;2.70;;;1.48;;
20697;SDS011;10508;50.956;4.640;2023-04-01T05:17:58;2.40;;;1.40;;
20697;SDS011;10508;50.956;4.640;2023-04-01T05:20:23;3.17;;;1.63;;
20697;SDS011;10508;50.956;4.640;2023-04-01T05:22:49;6.68;;;1.60;;
20697;SDS011;10508;50.956;4.640;2023-04-01T05:25:15;5.22;;;1.83;;
20697;SDS011;10508;50.956;4.640;2023-04-01T05:27:40;3.25;;;1.70;;
20697;SDS011;10508;50.956;4.640;2023-04-01T05:30:06;5.13;;;2.20;;
20697;SDS011;10508;50.956;4.640;2023-04-01T05:32:32;2.88;;;1.50;;
20697;SDS011;10508;50.956;4.640;2023-04-01T05:34:58;2.85;;;1.52;;
20697;SDS011;10508;50.956;4.640;2023-04-01T05:37:23;1.13;;;0.95;;
20697;SDS011;10508;50.956;4.640;2023-04-01T05:39:49;2.15;;;1.25;;
20697;SDS011;10508;50.956;4.640;2023-04-01T05:42:14;1.88;;;1.30;;
20697;SDS011;10508;50.956;4.640;2023-04-01T05:44:41;2.30;;;0.90;;
20697;SDS011;10508;50.956;4.640;2023-04-01T05:47:06;1.00;;;0.90;;
20697;SDS011;10508;50.956;4.640;2023-04-01T05:49:32;4.57;;;1.50;;
20697;SDS011;10508;50.956;4.640;2023-04-01T05:51:58;2.55;;;1.33;;
20697;SDS011;10508;50.956;4.640;2023-04-01T05:54:24;3.75;;;1.70;;
20697;SDS011;10508;50.956;4.640;2023-04-01T05:56:49;3.22;;;1.42;;
20697;SDS011;10508;50.956;4.640;2023-04-01T05:59:15;2.03;;;1.38;;
20697;SDS011;10508;50.956;4.640;2023-04-01T06:01:40;2.30;;;1.10;;
20697;SDS011;10508;50.956;4.640;2023-04-01T06:04:06;3.05;;;1.40;;
20697;SDS011;10508;50.956;4.640;2023-04-01T06:06:34;1.60;;;1.05;;
20697;SDS011;10508;50.956;4.640;2023-04-01T06:09:06;1.70;;;1.23;;
20697;SDS011;10508;50.956;4.640;2023-04-01T06:17:16;3.70;;;1.40;;
20697;SDS011;10508;50.956;4.640;2023-04-01T06:22:52;2.40;;;1.35;;
20697;SDS011;10508;50.956;4.640;2023-04-01T06:28:49;3.72;;;1.83;;
20697;SDS011;10508;50.956;4.640;2023-04-01T06:39:41;4.07;;;2.05;;
20697;SDS011;10508;50.956;4.640;2023-04-01T06:48:24;1.55;;;1.10;;
20697;SDS011;10508;50.956;4.640;2023-04-01T06:56:36;4.78;;;0.95;;
20697;SDS011;10508;50.956;4.640;2023-04-01T06:59:10;1.83;;;0.77;;
20697;SDS011;10508;50.956;4.640;2023-04-01T07:01:50;1.83;;;1.00;;
20697;SDS011;10508;50.956;4.640;2023-04-01T07:04:26;1.90;;;0.57;;
20697;SDS011;10508;50.956;4.640;2023-04-01T07:07:00;2.45;;;0.70;;
20697;SDS011;10508;50.956;4.640;2023-04-01T07:09:40;1.15;;;0.70;;
20697;SDS011;10508;50.956;4.640;2023-04-01T07:12:21;1.48;;;0.70;;
20697;SDS011;10508;50.956;4.640;2023-04-01T07:15:04;2.15;;;1.00;;
20697;SDS011;10508;50.956;4.640;2023-04-01T07:17:40;4.03;;;0.80;;
20697;SDS011;10508;50.956;4.640;2023-04-01T07:20:13;0.75;;;0.50;;
20697;SDS011;10508;50.956;4.640;2023-04-01T07:22:52;1.75;;;0.82;;
20697;SDS011;10508;50.956;4.640;2023-04-01T07:25:25;1.52;;;0.85;;
20697;SDS011;10508;50.956;4.640;2023-04-01T07:27:56;2.40;;;0.73;;
20697;SDS011;10508;50.956;4.640;2023-04-01T07:33:55;1.17;;;0.73;;
20697;SDS011;10508;50.956;4.640;2023-04-01T07:39:31;1.08;;;0.80;;
20697;SDS011;10508;50.956;4.640;2023-04-01T07:50:29;0.90;;;0.52;;
20697;SDS011;10508;50.956;4.640;2023-04-01T08:01:33;5.63;;;1.13;;
20697;SDS011;10508;50.956;4.640;2023-04-01T08:06:59;0.63;;;0.60;;
20697;SDS011;10508;50.956;4.640;2023-04-01T08:12:47;0.73;;;0.50;;
20697;SDS011;10508;50.956;4.640;2023-04-01T08:20:45;1.50;;;0.50;;
20697;SDS011;10508;50.956;4.640;2023-04-01T08:23:27;4.05;;;0.77;;
20697;SDS011;10508;50.956;4.640;2023-04-01T08:31:25;2.47;;;0.68;;
20697;SDS011;10508;50.956;4.640;2023-04-01T08:33:57;1.02;;;0.70;;
20697;SDS011;10508;50.956;4.640;2023-04-01T08:38:57;1.83;;;0.90;;
20697;SDS011;10508;50.956;4.640;2023-04-01T08:41:28;0.90;;;0.50;;
20697;SDS011;10508;50.956;4.640;2023-04-01T08:49:24;0.47;;;0.47;;
20697;SDS011;10508;50.956;4.640;2023-04-01T09:00:32;3.17;;;0.47;;
20697;SDS011;10508;50.956;4.640;2023-04-01T09:08:43;2.38;;;0.50;;
20697;SDS011;10508;50.956;4.640;2023-04-01T09:28:10;0.88;;;0.60;;
20697;SDS011;10508;50.956;4.640;2023-04-01T09:30:52;2.05;;;0.57;;
20697;SDS011;10508;50.956;4.640;2023-04-01T09:44:30;1.52;;;1.00;;
20697;SDS011;10508;50.956;4.640;2023-04-01T09:55:04;1.48;;;1.20;;
20697;SDS011;10508;50.956;4.640;2023-04-01T10:00:20;2.42;;;1.50;;
20697;SDS011;10508;50.956;4.640;2023-04-01T10:12:27;3.22;;;2.20;;
20697;SDS011;10508;50.956;4.640;2023-04-01T10:23:20;4.40;;;2.70;;
20697;SDS011;10508;50.956;4.640;2023-04-01T10:28:33;4.75;;;2.50;;
20697;SDS011;10508;50.956;4.640;2023-04-01T11:18:40;2.47;;;0.73;;
20697;SDS011;10508;50.956;4.640;2023-04-01T11:24:30;1.00;;;0.45;;
20697;SDS011;10508;50.956;4.640;2023-04-01T11:27:24;2.63;;;1.02;;
20697;SDS011;10508;50.956;4.640;2023-04-01T11:46:49;1.13;;;0.90;;
20697;SDS011;10508;50.956;4.640;2023-04-01T11:49:40;3.45;;;1.17;;
20697;SDS011;10508;50.956;4.640;2023-04-01T11:55:12;2.08;;;1.17;;
20697;SDS011;10508;50.956;4.640;2023-04-01T12:06:05;0.80;;;0.80;;
20697;SDS011;10508;50.956;4.640;2023-04-01T12:09:00;1.45;;;0.90;;
20697;SDS011;10508;50.956;4.640;2023-04-01T12:14:42;2.90;;;1.08;;
20697;SDS011;10508;50.956;4.640;2023-04-01T12:20:34;0.93;;;0.63;;
20697;SDS011;10508;50.956;4.640;2023-04-01T12:23:33;1.25;;;0.80;;
20697;SDS011;10508;50.956;4.640;2023-04-01T12:26:30;0.95;;;0.70;;
20697;SDS011;10508;50.956;4.640;2023-04-01T12:31:31;0.93;;;0.80;;
20697;SDS011;10508;50.956;4.640;2023-04-01T12:37:21;0.95;;;0.68;;
20697;SDS011;10508;50.956;4.640;2023-04-01T12:45:33;2.00;;;1.10;;
20697;SDS011;10508;50.956;4.640;2023-04-01T12:55:48;0.90;;;0.75;;
20697;SDS011;10508;50.956;4.640;2023-04-01T13:06:47;1.08;;;0.73;;
20697;SDS011;10508;50.956;4.640;2023-04-01T13:17:41;0.70;;;0.60;;
20697;SDS011;10508;50.956;4.640;2023-04-01T13:20:45;0.70;;;0.60;;
20697;SDS011;10508;50.956;4.640;2023-04-01T13:23:30;0.50;;;0.50;;
20697;SDS011;10508;50.956;4.640;2023-04-01T13:28:59;1.17;;;0.80;;
20697;SDS011;10508;50.956;4.640;2023-04-01T13:31:50;1.30;;;0.77;;
20697;SDS011;10508;50.956;4.640;2023-04-01T13:34:23;1.20;;;0.70;;
20697;SDS011;10508;50.956;4.640;2023-04-01T13:42:07;0.82;;;0.60;;
20697;SDS011;10508;50.956;4.640;2023-04-01T13:50:37;0.95;;;0.65;;
20697;SDS011;10508;50.956;4.640;2023-04-01T13:53:25;0.43;;;0.30;;
20697;SDS011;10508;50.956;4.640;2023-04-01T14:01:49;0.70;;;0.50;;
20697;SDS011;10508;50.956;4.640;2023-04-01T14:09:59;0.77;;;0.60;;
20697;SDS011;10508;50.956;4.640;2023-04-01T14:20:45;1.80;;;1.10;;
20697;SDS011;10508;50.956;4.640;2023-04-01T14:23:36;2.50;;;1.42;;
20697;SDS011;10508;50.956;4.640;2023-04-01T14:29:02;4.53;;;2.58;;
20697;SDS011;10508;50.956;4.640;2023-04-01T14:31:49;5.15;;;2.75;;
20697;SDS011;10508;50.956;4.640;2023-04-01T14:48:37;5.68;;;3.78;;
20697;SDS011;10508;50.956;4.640;2023-04-01T14:51:28;6.35;;;4.28;;
20697;SDS011;10508;50.956;4.640;2023-04-01T14:54:06;7.13;;;3.95;;
20697;SDS011;10508;50.956;4.640;2023-04-01T14:56:47;4.75;;;3.50;;
20697;SDS011;10508;50.956;4.640;2023-04-01T15:02:09;4.72;;;2.85;;
20697;SDS011;10508;50.956;4.640;2023-04-01T15:07:36;4.43;;;3.08;;
20697;SDS011;10508;50.956;4.640;2023-04-01T15:18:14;4.05;;;2.67;;
20697;SDS011;10508;50.956;4.640;2023-04-01T15:34:59;4.78;;;2.92;;
20697;SDS011;10508;50.956;4.640;2023-04-01T15:40:53;6.43;;;3.38;;
20697;SDS011;10508;50.956;4.640;2023-04-01T15:46:12;4.90;;;3.10;;
20697;SDS011;10508;50.956;4.640;2023-04-01T15:48:50;4.07;;;3.10;;
20697;SDS011;10508;50.956;4.640;2023-04-01T16:00:13;5.88;;;2.35;;
20697;SDS011;10508;50.956;4.640;2023-04-01T16:02:32;3.75;;;2.60;;
20697;SDS011;10508;50.956;4.640;2023-04-01T16:11:03;3.58;;;2.10;;
20697;SDS011;10508;50.956;4.640;2023-04-01T16:13:48;2.65;;;1.48;;
20697;SDS011;10508;50.956;4.640;2023-04-01T16:27:24;3.70;;;2.10;;
20697;SDS011;10508;50.956;4.640;2023-04-01T16:37:34;2.75;;;1.80;;
20697;SDS011;10508;50.956;4.640;2023-04-01T16:40:11;4.20;;;2.00;;
20697;SDS011;10508;50.956;4.640;2023-04-01T16:42:50;2.67;;;1.42;;
20697;SDS011;10508;50.956;4.640;2023-04-01T16:48:19;2.20;;;1.38;;
20697;SDS011;10508;50.956;4.640;2023-04-01T16:50:54;3.05;;;1.50;;
20697;SDS011;10508;50.956;4.640;2023-04-01T16:56:24;2.47;;;1.60;;
20697;SDS011;10508;50.956;4.640;2023-04-01T17:04:25;4.40;;;1.80;;
20697;SDS011;10508;50.956;4.640;2023-04-01T17:07:18;3.35;;;2.13;;
20697;SDS011;10508;50.956;4.640;2023-04-01T17:15:19;5.10;;;2.58;;
20697;SDS011;10508;50.956;4.640;2023-04-01T17:18:14;4.13;;;2.55;;
20697;SDS011;10508;50.956;4.640;2023-04-01T17:20:50;5.38;;;2.55;;
20697;SDS011;10508;50.956;4.640;2023-04-01T17:23:29;7.47;;;2.50;;
20697;SDS011;10508;50.956;4.640;2023-04-01T17:42:42;3.33;;;2.50;;
20697;SDS011;10508;50.956;4.640;2023-04-01T17:53:24;4.95;;;2.63;;
20697;SDS011;10508;50.956;4.640;2023-04-01T17:56:32;3.20;;;2.08;;
20697;SDS011;10508;50.956;4.640;2023-04-01T17:59:16;4.82;;;2.35;;
20697;SDS011;10508;50.956;4.640;2023-04-01T18:01:46;6.22;;;2.45;;
20697;SDS011;10508;50.956;4.640;2023-04-01T18:10:23;4.72;;;2.53;;
20697;SDS011;10508;50.956;4.640;2023-04-01T18:21:43;3.95;;;2.60;;
20697;SDS011;10508;50.956;4.640;2023-04-01T18:26:59;5.15;;;2.92;;
20697;SDS011;10508;50.956;4.640;2023-04-01T18:32:08;5.38;;;3.10;;
20697;SDS011;10508;50.956;4.640;2023-04-01T18:37:42;4.43;;;2.63;;
20697;SDS011;10508;50.956;4.640;2023-04-01T18:40:20;3.83;;;2.70;;
20697;SDS011;10508;50.956;4.640;2023-04-01T18:42:57;6.10;;;2.95;;
20697;SDS011;10508;50.956;4.640;2023-04-01T18:45:58;7.45;;;3.50;;
20697;SDS011;10508;50.956;4.640;2023-04-01T18:54:02;4.97;;;3.20;;
20697;SDS011;10508;50.956;4.640;2023-04-01T18:56:47;3.60;;;2.72;;
20697;SDS011;10508;50.956;4.640;2023-04-01T18:59:29;7.43;;;3.47;;
20697;SDS011;10508;50.956;4.640;2023-04-01T19:07:00;8.77;;;3.97;;
20697;SDS011;10508;50.956;4.640;2023-04-01T19:15:09;7.10;;;3.95;;
20697;SDS011;10508;50.956;4.640;2023-04-01T19:20:31;11.63;;;4.15;;
20697;SDS011;10508;50.956;4.640;2023-04-01T19:25:53;10.45;;;4.10;;
20697;SDS011;10508;50.956;4.640;2023-04-01T19:31:21;9.88;;;4.68;;
20697;SDS011;10508;50.956;4.640;2023-04-01T19:53:21;15.77;;;5.18;;
20697;SDS011;10508;50.956;4.640;2023-04-01T19:59:05;10.98;;;5.00;;
20697;SDS011;10508;50.956;4.640;2023-04-01T20:01:41;10.25;;;4.82;;
20697;SDS011;10508;50.956;4.640;2023-04-01T20:07:04;12.80;;;4.53;;
20697;SDS011;10508;50.956;4.640;2023-04-01T20:18:19;8.00;;;4.70;;
20697;SDS011;10508;50.956;4.640;2023-04-01T20:23:56;15.55;;;5.95;;
20697;SDS011;10508;50.956;4.640;2023-04-01T20:26:37;12.77;;;5.70;;
20697;SDS011;10508;50.956;4.640;2023-04-01T20:29:15;9.50;;;5.22;;
20697;SDS011;10508;50.956;4.640;2023-04-01T20:32:30;11.43;;;5.60;;
20697;SDS011;10508;50.956;4.640;2023-04-01T20:45:58;18.92;;;8.13;;
20697;SDS011;10508;50.956;4.640;2023-04-01T20:48:53;19.35;;;8.80;;
20697;SDS011;10508;50.956;4.640;2023-04-01T20:51:24;20.90;;;10.63;;
20697;SDS011;10508;50.956;4.640;2023-04-01T20:57:24;25.45;;;8.85;;
20697;SDS011;10508;50.956;4.640;2023-04-01T21:11:20;24.75;;;10.63;;
20697;SDS011;10508;50.956;4.640;2023-04-01T21:16:25;20.50;;;8.77;;
20697;SDS011;10508;50.956;4.640;2023-04-01T21:19:19;16.80;;;8.05;;
20697;SDS011;10508;50.956;4.640;2023-04-01T21:24:53;14.65;;;7.45;;
20697;SDS011;10508;50.956;4.640;2023-04-01T21:33:24;13.60;;;7.18;;
20697;SDS011;10508;50.956;4.640;2023-04-01T21:36:08;9.27;;;5.10;;
20697;SDS011;10508;50.956;4.640;2023-04-01T21:50:18;11.25;;;6.35;;
20697;SDS011;10508;50.956;4.640;2023-04-01T22:11:16;15.23;;;8.50;;
20697;SDS011;10508;50.956;4.640;2023-04-01T22:13:57;14.40;;;8.18;;
20697;SDS011;10508;50.956;4.640;2023-04-01T22:16:52;15.65;;;8.68;;
20697;SDS011;10508;50.956;4.640;2023-04-01T22:19:37;15.00;;;7.38;;
20697;SDS011;10508;50.956;4.640;2023-04-01T22:22:20;17.65;;;8.57;;
20697;SDS011;10508;50.956;4.640;2023-04-01T22:27:41;15.68;;;8.65;;
20697;SDS011;10508;50.956;4.640;2023-04-01T22:39:16;17.00;;;8.40;;
20697;SDS011;10508;50.956;4.640;2023-04-01T22:44:34;15.10;;;8.18;;
20697;SDS011;10508;50.956;4.640;2023-04-01T22:47:11;15.57;;;7.70;;
20697;SDS011;10508;50.956;4.640;2023-04-01T22:50:15;14.90;;;7.28;;
20697;SDS011;10508;50.956;4.640;2023-04-01T22:53:08;10.95;;;6.50;;
20697;SDS011;10508;50.956;4.640;2023-04-01T22:55:57;14.57;;;7.63;;
20697;SDS011;10508;50.956;4.640;2023-04-01T22:58:32;11.77;;;6.43;;
20697;SDS011;10508;50.956;4.640;2023-04-01T23:01:06;12.30;;;7.32;;
20697;SDS011;10508;50.956;4.640;2023-04-01T23:03:38;11.13;;;6.20;;
20697;SDS011;10508;50.956;4.640;2023-04-01T23:06:17;12.00;;;6.63;;
20697;SDS011;10508;50.956;4.640;2023-04-01T23:22:59;17.25;;;7.53;;
20697;SDS011;10508;50.956;4.640;2023-04-01T23:25:31;12.40;;;7.10;;
20697;SDS011;10508;50.956;4.640;2023-04-01T23:33:50;15.45;;;7.78;;
20697;SDS011;10508;50.956;4.640;2023-04-01T23:35:57;13.60;;;8.20;;
20697;SDS011;10508;50.956;4.640;2023-04-01T23:38:39;13.75;;;7.50;;
20697;SDS011;10508;50.956;4.640;2023-04-01T23:41:28;16.67;;;8.05;;
20697;SDS011;10508;50.956;4.640;2023-04-01T23:44:04;16.17;;;7.93;;
20697;SDS011;10508;50.956;4.640;2023-04-01T23:46:34;13.00;;;7.28;;
20697;SDS011;10508;50.956;4.640;2023-04-01T23:49:02;13.60;;;7.88;;
20697;SDS011;10508;50.956;4.640;2023-04-01T23:51:37;14.23;;;7.45;;
20697;SDS011;10508;50.956;4.640;2023-04-01T23:54:17;16.08;;;7.85;;
20697;SDS011;10508;50.956;4.640;2023-04-01T23:56:48;16.63;;;6.32;;
20697;SDS011;10508;50.956;4.640;2023-04-01T23:59:24;10.75;;;5.78;;
